createdAt,value
2018-11-26T00:02:00.249Z,25.70
2018-11-26T00:04:28.625Z,25.93
2018-11-26T00:06:57.154Z,25.67
2018-11-26T00:09:25.566Z,28.27
2018-11-26T00:11:53.900Z,25.27
2018-11-26T00:14:22.312Z,27.53
2018-11-26T00:16:50.766Z,27.17
2018-11-26T00:19:19.190Z,27.83
2018-11-26T00:21:47.671Z,29.57
2018-11-26T00:24:16.078Z,28.50
2018-11-26T00:26:44.450Z,28.10
2018-11-26T00:29:12.784Z,29.30
2018-11-26T00:31:41.265Z,28.40
2018-11-26T00:34:09.936Z,30.00
2018-11-26T00:36:38.533Z,29.70
2018-11-26T00:39:08.822Z,29.43
2018-11-26T00:41:37.212Z,30.73
2018-11-26T00:44:07.029Z,31.13
2018-11-26T00:46:35.507Z,29.77
2018-11-26T00:49:03.926Z,34.93
2018-11-26T00:51:32.469Z,40.77
2018-11-26T00:54:00.875Z,34.97
2018-11-26T00:56:29.288Z,32.07
2018-11-26T00:58:57.863Z,31.57
2018-11-26T01:01:26.258Z,31.73
2018-11-26T01:03:54.611Z,31.83
2018-11-26T01:06:23.089Z,29.70
2018-11-26T01:08:51.454Z,31.40
2018-11-26T01:11:19.751Z,31.87
2018-11-26T01:13:48.062Z,30.67
2018-11-26T01:16:16.375Z,30.77
2018-11-26T01:18:44.866Z,30.90
2018-11-26T01:21:13.346Z,30.57
2018-11-26T01:23:41.660Z,31.00
2018-11-26T01:26:10.061Z,31.67
2018-11-26T01:28:38.428Z,31.37
2018-11-26T01:31:06.768Z,28.83
2018-11-26T01:33:35.069Z,30.77
2018-11-26T01:36:03.411Z,29.53
2018-11-26T01:38:31.791Z,30.67
2018-11-26T01:41:00.393Z,29.60
2018-11-26T01:43:28.954Z,30.67
2018-11-26T01:45:57.352Z,30.53
2018-11-26T01:48:25.831Z,29.83
2018-11-26T01:50:54.166Z,30.83
2018-11-26T01:53:22.732Z,29.90
2018-11-26T01:55:51.170Z,30.13
2018-11-26T01:58:19.506Z,30.53
2018-11-26T02:00:47.977Z,31.60
2018-11-26T02:03:16.316Z,29.77
2018-11-26T02:05:44.726Z,28.73
2018-11-26T02:08:13.068Z,29.13
2018-11-26T02:10:41.347Z,30.70
2018-11-26T02:13:09.832Z,30.00
2018-11-26T02:15:41.051Z,28.90
2018-11-26T02:18:09.657Z,29.17
2018-11-26T02:20:37.971Z,30.13
2018-11-26T02:23:06.630Z,29.63
2018-11-26T02:25:34.851Z,30.57
2018-11-26T02:28:03.301Z,28.87
2018-11-26T02:30:31.635Z,29.53
2018-11-26T02:32:59.947Z,29.20
2018-11-26T02:35:28.338Z,29.33
2018-11-26T02:37:56.623Z,27.67
2018-11-26T02:40:30.087Z,27.07
2018-11-26T02:42:58.540Z,28.60
2018-11-26T02:45:27.421Z,27.20
2018-11-26T02:47:55.995Z,28.10
2018-11-26T02:50:24.371Z,27.20
2018-11-26T02:52:52.727Z,28.30
2018-11-26T02:55:21.059Z,26.83
2018-11-26T02:57:49.475Z,29.30
2018-11-26T03:00:17.722Z,27.73
2018-11-26T03:02:46.088Z,26.93
2018-11-26T03:05:20.936Z,27.90
2018-11-26T03:07:49.241Z,27.23
2018-11-26T03:10:17.551Z,26.50
2018-11-26T03:12:46.012Z,25.77
2018-11-26T03:15:14.346Z,27.63
2018-11-26T03:17:42.609Z,25.73
2018-11-26T03:20:11.034Z,25.40
2018-11-26T03:22:39.629Z,25.87
2018-11-26T03:25:09.668Z,25.53
2018-11-26T03:27:38.035Z,25.57
2018-11-26T03:30:10.241Z,24.80
2018-11-26T03:32:38.499Z,22.63
2018-11-26T03:35:07.866Z,23.47
2018-11-26T03:37:36.283Z,24.07
2018-11-26T03:40:07.307Z,22.60
2018-11-26T03:42:35.843Z,24.20
2018-11-26T03:45:04.951Z,23.37
2018-11-26T03:47:33.209Z,22.63
2018-11-26T03:50:01.458Z,23.23
2018-11-26T03:52:30.021Z,23.20
2018-11-26T03:54:58.759Z,23.90
2018-11-26T03:57:27.062Z,24.37
2018-11-26T03:59:55.458Z,23.63
2018-11-26T04:02:23.749Z,24.40
2018-11-26T04:04:52.283Z,22.20
2018-11-26T04:07:20.751Z,21.33
2018-11-26T04:09:49.485Z,23.10
2018-11-26T04:12:17.752Z,23.90
2018-11-26T04:14:46.148Z,22.60
2018-11-26T04:17:14.783Z,22.30
2018-11-26T04:19:43.171Z,24.20
2018-11-26T04:22:11.511Z,23.20
2018-11-26T04:24:39.873Z,24.53
2018-11-26T04:27:08.686Z,24.13
2018-11-26T04:29:37.601Z,22.10
2018-11-26T04:32:06.053Z,21.70
2018-11-26T04:34:34.501Z,21.70
2018-11-26T04:37:02.836Z,22.23
2018-11-26T04:39:31.167Z,22.47
2018-11-26T04:41:59.490Z,22.57
2018-11-26T04:44:27.813Z,22.63
2018-11-26T04:46:56.219Z,22.17
2018-11-26T04:49:27.656Z,21.73
2018-11-26T04:51:56.808Z,23.57
2018-11-26T04:54:29.334Z,23.77
2018-11-26T04:56:58.338Z,22.70
2018-11-26T04:59:26.731Z,23.87
2018-11-26T05:01:55.021Z,23.80
2018-11-26T05:04:23.482Z,24.43
2018-11-26T05:06:51.954Z,22.77
2018-11-26T05:09:20.373Z,23.13
2018-11-26T05:11:48.753Z,22.67
2018-11-26T05:14:17.464Z,23.80
2018-11-26T05:16:45.835Z,23.93
2018-11-26T05:19:14.341Z,23.83
2018-11-26T05:21:42.693Z,24.83
2018-11-26T05:24:10.997Z,23.03
2018-11-26T05:26:39.641Z,24.40
2018-11-26T05:29:08.131Z,22.80
2018-11-26T05:31:36.436Z,23.17
2018-11-26T05:34:04.871Z,23.33
2018-11-26T05:36:33.146Z,22.53
2018-11-26T05:39:01.601Z,25.30
2018-11-26T05:41:30.319Z,24.27
2018-11-26T05:43:58.964Z,24.80
2018-11-26T05:46:27.275Z,23.27
2018-11-26T05:48:55.925Z,24.33
2018-11-26T05:51:24.296Z,24.43
2018-11-26T05:53:52.728Z,24.13
2018-11-26T05:56:21.172Z,25.53
2018-11-26T05:58:49.665Z,26.50
2018-11-26T06:01:18.329Z,24.93
2018-11-26T06:03:46.786Z,25.80
2018-11-26T06:06:15.354Z,24.57
2018-11-26T06:08:43.652Z,25.90
2018-11-26T06:11:12.077Z,26.27
2018-11-26T06:13:40.556Z,25.70
2018-11-26T06:16:09.142Z,25.83
2018-11-26T06:18:37.804Z,27.33
2018-11-26T06:21:06.672Z,25.30
2018-11-26T06:23:35.135Z,26.53
2018-11-26T06:26:03.680Z,29.70
2018-11-26T06:28:32.616Z,27.87
2018-11-26T06:31:01.132Z,27.43
2018-11-26T06:33:29.466Z,29.03
2018-11-26T06:35:57.811Z,28.93
2018-11-26T06:38:26.351Z,28.17
2018-11-26T06:40:54.821Z,28.37
2018-11-26T06:43:23.173Z,29.23
2018-11-26T06:45:51.668Z,28.87
2018-11-26T06:48:20.300Z,27.70
2018-11-26T06:50:48.781Z,28.53
2018-11-26T06:53:17.078Z,27.13
2018-11-26T06:55:45.572Z,29.40
2018-11-26T06:58:13.938Z,28.17
2018-11-26T07:00:42.364Z,28.77
2018-11-26T07:03:10.633Z,30.10
2018-11-26T07:05:38.941Z,27.83
2018-11-26T07:08:07.793Z,29.00
2018-11-26T07:10:36.472Z,28.00
2018-11-26T07:13:05.238Z,27.53
2018-11-26T07:15:33.646Z,29.73
2018-11-26T07:18:02.048Z,30.10
2018-11-26T07:20:30.413Z,28.70
2018-11-26T07:22:58.748Z,28.50
2018-11-26T07:25:27.058Z,29.33
2018-11-26T07:27:55.482Z,51.03
2018-11-26T07:30:26.138Z,37.00
2018-11-26T07:32:55.174Z,29.03
2018-11-26T07:35:23.446Z,29.27
2018-11-26T07:37:51.852Z,29.37
2018-11-26T07:40:22.324Z,29.57
2018-11-26T07:43:09.104Z,29.07
2018-11-26T07:45:37.789Z,28.73
2018-11-26T07:48:07.592Z,29.70
2018-11-26T07:50:36.842Z,29.20
2018-11-26T07:53:06.774Z,29.53
2018-11-26T07:55:35.612Z,29.70
2018-11-26T07:58:04.942Z,30.90
2018-11-26T08:00:34.238Z,30.90
2018-11-26T08:03:02.715Z,30.63
2018-11-26T08:05:33.746Z,30.40
2018-11-26T08:08:02.760Z,29.10
2018-11-26T08:10:31.324Z,28.70
2018-11-26T08:12:59.824Z,29.03
2018-11-26T08:15:28.815Z,29.83
2018-11-26T08:17:57.490Z,28.43
2018-11-26T08:20:26.189Z,29.10
2018-11-26T08:22:54.644Z,27.87
2018-11-26T08:25:23.863Z,28.57
2018-11-26T08:27:52.399Z,27.80
2018-11-26T08:30:22.724Z,28.63
2018-11-26T08:32:52.586Z,28.20
2018-11-26T08:35:20.976Z,29.80
2018-11-26T08:37:54.822Z,28.90
2018-11-26T08:40:25.480Z,27.60
2018-11-26T08:42:59.610Z,27.53
2018-11-26T08:45:34.432Z,46.87
2018-11-26T08:48:06.029Z,29.23
2018-11-26T08:50:34.378Z,26.07
2018-11-26T08:53:02.734Z,26.67
2018-11-26T08:55:31.035Z,24.50
2018-11-26T08:57:59.530Z,28.07
2018-11-26T09:00:27.877Z,28.70
2018-11-26T09:03:04.436Z,27.70
2018-11-26T09:05:42.057Z,27.83
2018-11-26T09:08:10.649Z,30.80
2018-11-26T09:10:39.123Z,44.50
2018-11-26T09:13:07.650Z,24.90
2018-11-26T09:15:36.041Z,23.60
2018-11-26T09:18:04.999Z,24.57
2018-11-26T09:20:33.323Z,24.43
2018-11-26T09:23:01.747Z,24.07
2018-11-26T09:25:30.221Z,24.70
2018-11-26T09:27:58.796Z,25.07
2018-11-26T09:30:27.201Z,22.83
2018-11-26T09:32:55.610Z,23.60
2018-11-26T09:35:24.040Z,23.33
2018-11-26T09:37:52.543Z,22.90
2018-11-26T09:40:21.007Z,23.00
2018-11-26T09:42:49.347Z,24.47
2018-11-26T09:45:18.237Z,33.13
2018-11-26T09:47:46.717Z,43.53
2018-11-26T09:50:17.157Z,36.03
2018-11-26T09:52:45.462Z,28.60
2018-11-26T09:55:14.845Z,27.63
2018-11-26T09:57:43.200Z,22.53
2018-11-26T10:00:17.408Z,35.60
2018-11-26T10:02:47.051Z,40.23
2018-11-26T10:05:16.673Z,25.83
2018-11-26T10:07:45.237Z,21.97
2018-11-26T10:10:13.892Z,23.80
2018-11-26T10:12:43.008Z,24.53
2018-11-26T10:15:19.919Z,22.33
2018-11-26T10:17:48.416Z,23.57
2018-11-26T10:20:16.895Z,26.53
2018-11-26T10:22:45.891Z,23.80
2018-11-26T10:25:17.339Z,22.30
2018-11-26T10:27:45.795Z,23.17
2018-11-26T10:30:18.644Z,22.63
2018-11-26T10:32:47.651Z,22.13
2018-11-26T10:35:17.370Z,22.10
2018-11-26T10:37:45.937Z,29.80
2018-11-26T10:40:20.030Z,41.13
2018-11-26T10:42:48.387Z,35.23
2018-11-26T10:45:18.049Z,20.30
2018-11-26T10:47:46.611Z,25.60
2018-11-26T10:50:17.099Z,26.67
2018-11-26T10:52:47.548Z,20.20
2018-11-26T10:55:17.352Z,18.73
2018-11-26T10:57:45.701Z,19.63
2018-11-26T11:00:20.467Z,18.07
2018-11-26T11:02:49.110Z,17.53
2018-11-26T11:05:17.544Z,18.37
2018-11-26T11:07:45.923Z,19.33
2018-11-26T11:10:16.700Z,21.40
2018-11-26T11:12:45.090Z,23.87
2018-11-26T11:15:13.776Z,18.57
2018-11-26T11:17:42.209Z,16.00
2018-11-26T11:20:13.918Z,16.90
2018-11-26T11:22:42.281Z,16.77
2018-11-26T11:25:12.841Z,17.83
2018-11-26T11:27:41.295Z,57.53
2018-11-26T11:30:14.009Z,26.10
2018-11-26T11:32:42.389Z,16.87
2018-11-26T11:35:11.965Z,26.23
2018-11-26T11:37:40.729Z,24.43
2018-11-26T11:40:13.803Z,17.67
2018-11-26T11:42:42.097Z,17.27
2018-11-26T11:45:11.774Z,16.10
2018-11-26T11:47:40.310Z,16.10
2018-11-26T11:50:13.516Z,17.57
2018-11-26T11:52:42.289Z,17.57
2018-11-26T11:55:12.577Z,17.97
2018-11-26T11:57:40.884Z,16.77
2018-11-26T12:00:12.108Z,17.07
2018-11-26T12:02:41.818Z,16.87
2018-11-26T12:05:11.980Z,16.57
2018-11-26T12:07:40.433Z,21.67
2018-11-26T12:10:11.154Z,21.23
2018-11-26T12:12:39.604Z,17.03
2018-11-26T12:15:11.143Z,15.97
2018-11-26T12:17:40.099Z,15.73
2018-11-26T12:20:11.580Z,17.13
2018-11-26T12:22:40.088Z,16.47
2018-11-26T12:25:10.035Z,16.50
2018-11-26T12:27:38.670Z,15.07
2018-11-26T12:30:14.803Z,14.87
2018-11-26T12:32:43.602Z,15.03
2018-11-26T12:35:11.992Z,15.13
2018-11-26T12:37:40.436Z,16.20
2018-11-26T12:40:12.390Z,17.03
2018-11-26T12:42:41.410Z,15.80
2018-11-26T12:45:18.746Z,18.03
2018-11-26T12:47:51.943Z,24.03
2018-11-26T12:50:21.103Z,20.30
2018-11-26T12:52:49.646Z,17.13
2018-11-26T12:55:19.295Z,16.57
2018-11-26T12:57:48.689Z,15.63
2018-11-26T13:00:21.279Z,14.90
2018-11-26T13:02:54.318Z,15.77
2018-11-26T13:05:22.884Z,16.13
2018-11-26T13:07:51.694Z,15.53
2018-11-26T13:10:21.269Z,15.90
2018-11-26T13:12:50.783Z,16.20
2018-11-26T13:15:26.093Z,15.77
2018-11-26T13:17:54.622Z,14.90
2018-11-26T13:20:24.949Z,16.33
2018-11-26T13:22:53.925Z,33.10
2018-11-26T13:25:24.781Z,21.47
2018-11-26T13:27:54.427Z,17.47
2018-11-26T13:30:30.970Z,18.87
2018-11-26T13:33:01.389Z,19.03
2018-11-26T13:35:29.951Z,29.00
2018-11-26T13:37:59.408Z,30.00
2018-11-26T13:40:27.768Z,21.53
2018-11-26T13:42:56.249Z,23.87
2018-11-26T13:45:27.112Z,25.03
2018-11-26T13:47:55.619Z,21.23
2018-11-26T13:50:26.291Z,25.83
2018-11-26T13:52:55.078Z,33.93
2018-11-26T13:55:23.640Z,24.60
2018-11-26T13:57:52.340Z,18.90
2018-11-26T14:00:20.887Z,18.43
2018-11-26T14:02:49.526Z,18.37
2018-11-26T14:05:18.920Z,16.73
2018-11-26T14:07:48.326Z,18.50
2018-11-26T14:10:18.937Z,19.27
2018-11-26T14:12:49.249Z,20.60
2018-11-26T14:15:17.896Z,19.53
2018-11-26T14:17:46.330Z,19.00
2018-11-26T14:20:16.000Z,19.73
2018-11-26T14:22:44.454Z,20.47
2018-11-26T14:25:15.884Z,19.73
2018-11-26T14:27:44.632Z,21.80
2018-11-26T14:30:21.493Z,20.00
2018-11-26T14:32:50.018Z,20.87
2018-11-26T14:35:20.944Z,18.70
2018-11-26T14:37:52.818Z,19.20
2018-11-26T14:40:29.498Z,18.47
2018-11-26T14:42:58.019Z,20.07
2018-11-26T14:45:26.576Z,18.93
2018-11-26T14:47:55.344Z,18.67
2018-11-26T14:50:23.762Z,19.77
2018-11-26T14:52:52.273Z,17.83
2018-11-26T14:55:25.901Z,21.10
2018-11-26T14:57:57.086Z,19.93
2018-11-26T15:00:25.959Z,18.73
2018-11-26T15:02:54.455Z,21.47
2018-11-26T15:05:23.079Z,19.30
2018-11-26T15:07:51.742Z,19.33
2018-11-26T15:10:22.352Z,18.73
2018-11-26T15:12:50.838Z,17.60
2018-11-26T15:15:22.701Z,17.30
2018-11-26T15:17:51.843Z,17.83
2018-11-26T15:20:23.661Z,17.63
2018-11-26T15:22:53.254Z,18.43
2018-11-26T15:25:23.788Z,18.17
2018-11-26T15:27:53.655Z,18.27
2018-11-26T15:30:23.726Z,17.83
2018-11-26T15:32:52.286Z,31.90
2018-11-26T15:35:22.300Z,28.13
2018-11-26T15:37:51.166Z,35.23
2018-11-26T15:40:23.091Z,20.43
2018-11-26T15:42:51.604Z,17.80
2018-11-26T15:45:22.610Z,17.60
2018-11-26T15:47:53.618Z,17.30
2018-11-26T15:50:22.204Z,17.53
2018-11-26T15:52:51.794Z,17.17
2018-11-26T15:55:21.710Z,16.57
2018-11-26T15:57:50.575Z,16.97
2018-11-26T16:00:21.226Z,16.47
2018-11-26T16:02:49.988Z,17.40
2018-11-26T16:05:20.941Z,16.07
2018-11-26T16:07:50.040Z,16.70
2018-11-26T16:10:18.552Z,17.17
2018-11-26T16:12:48.567Z,16.30
2018-11-26T16:15:20.536Z,15.70
2018-11-26T16:17:49.788Z,16.43
2018-11-26T16:20:20.623Z,17.67
2018-11-26T16:22:49.869Z,16.87
2018-11-26T16:25:20.994Z,15.97
2018-11-26T16:27:50.775Z,16.63
2018-11-26T16:30:20.281Z,16.13
2018-11-26T16:32:56.134Z,15.70
2018-11-26T16:35:26.132Z,15.70
2018-11-26T16:37:54.761Z,15.07
2018-11-26T16:40:23.121Z,14.33
2018-11-26T16:42:52.568Z,14.63
2018-11-26T16:45:23.249Z,15.00
2018-11-26T16:48:09.951Z,17.33
2018-11-26T16:50:39.189Z,18.03
2018-11-26T16:53:08.138Z,19.37
2018-11-26T16:55:37.084Z,20.83
2018-11-26T16:58:05.960Z,20.70
2018-11-26T17:00:34.617Z,21.20
2018-11-26T17:03:03.309Z,16.30
2018-11-26T17:05:36.139Z,16.53
2018-11-26T17:08:05.301Z,15.73
2018-11-26T17:10:33.897Z,15.73
2018-11-26T17:13:02.332Z,14.57
2018-11-26T17:15:31.148Z,15.17
2018-11-26T17:17:59.616Z,13.60
2018-11-26T17:20:28.049Z,13.80
2018-11-26T17:22:56.947Z,14.43
2018-11-26T17:25:25.382Z,14.33
2018-11-26T17:27:53.855Z,13.33
2018-11-26T17:30:30.829Z,14.03
2018-11-26T17:33:01.311Z,14.70
2018-11-26T17:35:30.594Z,14.60
2018-11-26T17:37:59.373Z,16.23
2018-11-26T17:40:29.168Z,15.23
2018-11-26T17:42:57.782Z,14.67
2018-11-26T17:45:26.699Z,14.70
2018-11-26T17:47:57.362Z,14.67
2018-11-26T17:50:28.290Z,13.87
2018-11-26T17:52:57.346Z,13.30
2018-11-26T17:55:26.743Z,13.47
2018-11-26T17:57:55.855Z,13.13
2018-11-26T18:00:29.870Z,13.23
2018-11-26T18:03:00.423Z,13.53
2018-11-26T18:05:30.050Z,13.83
2018-11-26T18:08:15.256Z,15.17
2018-11-26T18:10:44.097Z,22.93
2018-11-26T18:13:12.685Z,18.03
2018-11-26T18:15:41.215Z,15.40
2018-11-26T18:18:13.403Z,14.60
2018-11-26T18:20:41.810Z,16.07
2018-11-26T18:23:11.049Z,14.50
2018-11-26T18:25:39.593Z,17.47
2018-11-26T18:28:10.154Z,34.40
2018-11-26T18:30:43.765Z,16.50
2018-11-26T18:33:12.076Z,13.13
2018-11-26T18:35:41.466Z,12.43
2018-11-26T18:38:09.901Z,13.33
2018-11-26T18:40:39.572Z,12.63
2018-11-26T18:43:08.857Z,13.73
2018-11-26T18:45:38.380Z,14.10
2018-11-26T18:48:08.119Z,18.83
2018-11-26T18:50:36.786Z,28.83
2018-11-26T18:53:05.532Z,18.23
2018-11-26T18:55:33.994Z,14.13
2018-11-26T18:58:03.490Z,13.87
2018-11-26T19:00:34.213Z,14.03
2018-11-26T19:03:02.766Z,15.90
2018-11-26T19:05:31.271Z,15.63
2018-11-26T19:07:59.827Z,17.90
2018-11-26T19:10:32.894Z,32.40
2018-11-26T19:13:09.695Z,21.80
2018-11-26T19:15:40.016Z,18.13
2018-11-26T19:18:26.235Z,16.07
2018-11-26T19:20:54.761Z,13.63
2018-11-26T19:23:23.524Z,13.93
2018-11-26T19:25:52.786Z,14.03
2018-11-26T19:28:22.001Z,15.20
2018-11-26T19:30:50.404Z,14.13
2018-11-26T19:33:19.428Z,13.40
2018-11-26T19:35:47.801Z,15.80
2018-11-26T19:38:16.308Z,15.87
2018-11-26T19:40:45.307Z,15.70
2018-11-26T19:43:13.855Z,13.37
2018-11-26T19:45:42.901Z,13.17
2018-11-26T19:48:12.050Z,14.10
2018-11-26T19:50:42.073Z,13.37
2018-11-26T19:53:11.575Z,13.17
2018-11-26T19:55:41.463Z,26.50
2018-11-26T19:58:10.374Z,15.53
2018-11-26T20:00:39.385Z,14.90
2018-11-26T20:03:40.904Z,15.00
2018-11-26T20:06:18.124Z,15.30
2018-11-26T20:08:50.293Z,15.93
2018-11-26T20:11:19.941Z,16.40
2018-11-26T20:13:48.465Z,16.97
2018-11-26T20:16:20.357Z,16.63
2018-11-26T20:18:50.429Z,22.47
2018-11-26T20:21:18.984Z,23.17
2018-11-26T20:23:49.931Z,19.10
2018-11-26T20:26:19.128Z,17.70
2018-11-26T20:28:47.630Z,18.77
2018-11-26T20:31:16.337Z,22.30
2018-11-26T20:33:44.792Z,25.23
2018-11-26T20:36:15.168Z,26.57
2018-11-26T20:38:43.821Z,24.23
2018-11-26T20:41:13.247Z,23.37
2018-11-26T20:43:41.838Z,40.33
2018-11-26T20:46:10.693Z,30.70
2018-11-26T20:48:41.401Z,21.80
2018-11-26T20:51:13.948Z,21.03
2018-11-26T20:53:49.848Z,21.40
2018-11-26T20:56:19.139Z,21.07
2018-11-26T20:58:48.105Z,19.63
2018-11-26T21:01:16.806Z,20.03
2018-11-26T21:03:45.675Z,19.83
2018-11-26T21:06:15.890Z,23.10
2018-11-26T21:08:44.806Z,20.90
2018-11-26T21:11:13.552Z,20.37
2018-11-26T21:13:45.717Z,21.70
2018-11-26T21:16:15.857Z,20.33
2018-11-26T21:18:44.901Z,20.60
2018-11-26T21:21:13.615Z,20.47
2018-11-26T21:23:42.280Z,20.10
2018-11-26T21:26:11.621Z,20.67
2018-11-26T21:28:40.202Z,18.90
2018-11-26T21:31:08.782Z,20.63
2018-11-26T21:33:37.404Z,21.43
2018-11-26T21:36:06.333Z,22.93
2018-11-26T21:38:36.941Z,20.80
2018-11-26T21:41:06.350Z,20.03
2018-11-26T21:43:37.451Z,25.40
2018-11-26T21:46:08.621Z,22.70
2018-11-26T21:48:40.297Z,18.73
2018-11-26T21:51:08.873Z,20.03
2018-11-26T21:53:38.518Z,19.70
2018-11-26T21:56:06.965Z,19.90
2018-11-26T21:58:35.415Z,17.60
2018-11-26T22:01:06.073Z,17.83
2018-11-26T22:03:34.585Z,17.90
2018-11-26T22:06:07.635Z,19.50
2018-11-26T22:08:36.387Z,18.13
2018-11-26T22:11:06.124Z,17.83
2018-11-26T22:13:37.442Z,19.47
2018-11-26T22:16:06.287Z,18.00
2018-11-26T22:18:35.096Z,17.80
2018-11-26T22:21:03.963Z,18.73
2018-11-26T22:23:32.443Z,19.73
2018-11-26T22:26:01.292Z,17.50
2018-11-26T22:28:34.759Z,19.57
2018-11-26T22:31:13.922Z,21.23
2018-11-26T22:33:43.552Z,17.53
2018-11-26T22:36:12.868Z,19.43
2018-11-26T22:38:41.516Z,17.30
2018-11-26T22:41:10.628Z,18.60
2018-11-26T22:43:43.697Z,17.87
2018-11-26T22:46:15.924Z,18.53
2018-11-26T22:48:42.703Z,17.60
2018-11-26T22:51:11.278Z,18.50
2018-11-26T22:53:39.897Z,17.63
2018-11-26T22:56:08.779Z,17.20
2018-11-26T22:58:37.386Z,18.37
2018-11-26T23:01:07.006Z,17.20
2018-11-26T23:03:35.734Z,17.47
2018-11-26T23:06:04.474Z,17.87
2018-11-26T23:08:33.654Z,17.17
2018-11-26T23:11:02.610Z,17.73
2018-11-26T23:13:31.165Z,16.37
2018-11-26T23:15:59.590Z,23.33
2018-11-26T23:18:29.114Z,37.70
2018-11-26T23:20:57.646Z,20.77
2018-11-26T23:23:26.122Z,16.87
2018-11-26T23:25:54.573Z,17.47
2018-11-26T23:28:26.372Z,18.73
2018-11-26T23:30:55.372Z,19.40
2018-11-26T23:33:24.576Z,17.00
2018-11-26T23:35:53.575Z,17.63
2018-11-26T23:38:22.480Z,18.40
2018-11-26T23:40:50.848Z,16.43
2018-11-26T23:43:19.330Z,18.87
2018-11-26T23:45:48.159Z,19.13
2018-11-26T23:48:16.722Z,19.47
2018-11-26T23:50:45.729Z,18.97
2018-11-26T23:53:15.089Z,18.93
2018-11-26T23:55:43.609Z,19.20
2018-11-26T23:58:11.958Z,19.27
